Weather at Lincoln Park Airport

Public forecast

Using degrees Fahrenheit for public forecast. Weather courtesy of forecast.io.

Closest aviation weather report (METAR) to Lincoln Park Airport

Closest report is Essex County Airport, 4.6 nm (8.5 km) SSE. Retrieved 2020/09/19 01:53 UTC (1 hour ago):

KCDW 190153Z VRB05KT 10SM CLR 15/01 A3014 RMK AO2 SLP211 T01500011

Closest aviation forecast (TAF) to Lincoln Park Airport

Closest forecast is Teterboro Airport, 12.9 nm (23.9 km) ESE. Retrieved 2020-09-19 00:22 UTC (3 hours ago):

TAF KTEB 182320Z 1900/2006 01009G16KT P6SM FEW060 FM190800 36008KT P6SM SKC FM191300 01011G18KT P6SM SKC FM192000 01008KT P6SM SKC